sensor_id;sensor_type;location;lat;lon;timestamp;P1;durP1;ratioP1;P2;durP2;ratioP2
79066;SDS011;68470;50.224;14.348;2023-05-10T00:02:09;3.55;;;2.35;;
79066;SDS011;68470;50.224;14.348;2023-05-10T00:04:35;2.72;;;2.17;;
79066;SDS011;68470;50.224;14.348;2023-05-10T00:07:00;3.70;;;2.40;;
79066;SDS011;68470;50.224;14.348;2023-05-10T00:09:26;3.22;;;2.08;;
79066;SDS011;68470;50.224;14.348;2023-05-10T00:11:52;6.25;;;2.40;;
79066;SDS011;68470;50.224;14.348;2023-05-10T00:14:18;4.93;;;2.47;;
79066;SDS011;68470;50.224;14.348;2023-05-10T00:16:44;3.40;;;1.77;;
79066;SDS011;68470;50.224;14.348;2023-05-10T00:19:09;3.10;;;2.50;;
79066;SDS011;68470;50.224;14.348;2023-05-10T00:21:35;6.55;;;2.65;;
79066;SDS011;68470;50.224;14.348;2023-05-10T00:24:01;2.10;;;1.60;;
79066;SDS011;68470;50.224;14.348;2023-05-10T00:26:27;7.40;;;2.60;;
79066;SDS011;68470;50.224;14.348;2023-05-10T00:28:53;2.92;;;1.77;;
79066;SDS011;68470;50.224;14.348;2023-05-10T00:31:19;3.90;;;2.50;;
79066;SDS011;68470;50.224;14.348;2023-05-10T00:33:44;3.33;;;2.22;;
79066;SDS011;68470;50.224;14.348;2023-05-10T00:36:10;5.00;;;3.40;;
79066;SDS011;68470;50.224;14.348;2023-05-10T00:38:36;5.50;;;2.40;;
79066;SDS011;68470;50.224;14.348;2023-05-10T00:41:02;4.43;;;1.92;;
79066;SDS011;68470;50.224;14.348;2023-05-10T00:43:28;3.72;;;2.30;;
79066;SDS011;68470;50.224;14.348;2023-05-10T00:45:54;5.85;;;2.40;;
79066;SDS011;68470;50.224;14.348;2023-05-10T00:48:19;5.70;;;2.80;;
79066;SDS011;68470;50.224;14.348;2023-05-10T00:50:47;3.78;;;2.72;;
79066;SDS011;68470;50.224;14.348;2023-05-10T00:53:13;3.72;;;2.80;;
79066;SDS011;68470;50.224;14.348;2023-05-10T00:55:40;2.72;;;2.00;;
79066;SDS011;68470;50.224;14.348;2023-05-10T00:58:06;3.45;;;2.60;;
79066;SDS011;68470;50.224;14.348;2023-05-10T01:00:33;5.20;;;2.47;;
79066;SDS011;68470;50.224;14.348;2023-05-10T01:02:59;2.67;;;1.63;;
79066;SDS011;68470;50.224;14.348;2023-05-10T01:05:25;2.70;;;2.13;;
79066;SDS011;68470;50.224;14.348;2023-05-10T01:07:52;3.58;;;1.90;;
79066;SDS011;68470;50.224;14.348;2023-05-10T01:10:18;4.00;;;2.50;;
79066;SDS011;68470;50.224;14.348;2023-05-10T01:12:45;5.03;;;3.13;;
79066;SDS011;68470;50.224;14.348;2023-05-10T01:15:12;3.10;;;2.10;;
79066;SDS011;68470;50.224;14.348;2023-05-10T01:17:40;3.53;;;2.08;;
79066;SDS011;68470;50.224;14.348;2023-05-10T01:20:08;3.53;;;2.47;;
79066;SDS011;68470;50.224;14.348;2023-05-10T01:33:11;4.50;;;2.70;;
79066;SDS011;68470;50.224;14.348;2023-05-10T01:35:51;3.22;;;2.20;;
79066;SDS011;68470;50.224;14.348;2023-05-10T01:38:19;3.58;;;2.03;;
79066;SDS011;68470;50.224;14.348;2023-05-10T01:43:48;3.45;;;2.25;;
79066;SDS011;68470;50.224;14.348;2023-05-10T01:46:20;2.97;;;1.98;;
79066;SDS011;68470;50.224;14.348;2023-05-10T01:48:54;4.05;;;2.70;;
79066;SDS011;68470;50.224;14.348;2023-05-10T01:51:24;3.05;;;1.85;;
79066;SDS011;68470;50.224;14.348;2023-05-10T01:53:51;2.88;;;2.03;;
79066;SDS011;68470;50.224;14.348;2023-05-10T01:56:24;3.80;;;3.05;;
79066;SDS011;68470;50.224;14.348;2023-05-10T01:58:52;4.03;;;2.30;;
79066;SDS011;68470;50.224;14.348;2023-05-10T02:01:20;4.75;;;2.72;;
79066;SDS011;68470;50.224;14.348;2023-05-10T02:03:47;5.05;;;2.35;;
79066;SDS011;68470;50.224;14.348;2023-05-10T02:06:15;9.05;;;2.67;;
79066;SDS011;68470;50.224;14.348;2023-05-10T02:08:43;3.88;;;2.30;;
79066;SDS011;68470;50.224;14.348;2023-05-10T02:11:15;3.40;;;2.25;;
79066;SDS011;68470;50.224;14.348;2023-05-10T02:13:43;3.13;;;2.08;;
79066;SDS011;68470;50.224;14.348;2023-05-10T02:16:13;3.45;;;3.05;;
79066;SDS011;68470;50.224;14.348;2023-05-10T02:18:41;3.55;;;2.17;;
79066;SDS011;68470;50.224;14.348;2023-05-10T02:21:07;3.53;;;2.60;;
79066;SDS011;68470;50.224;14.348;2023-05-10T02:23:33;3.50;;;2.65;;
79066;SDS011;68470;50.224;14.348;2023-05-10T02:26:01;2.75;;;2.15;;
79066;SDS011;68470;50.224;14.348;2023-05-10T02:28:28;3.72;;;2.63;;
79066;SDS011;68470;50.224;14.348;2023-05-10T02:30:55;3.30;;;2.45;;
79066;SDS011;68470;50.224;14.348;2023-05-10T02:33:22;3.20;;;2.63;;
79066;SDS011;68470;50.224;14.348;2023-05-10T02:35:49;3.35;;;2.70;;
79066;SDS011;68470;50.224;14.348;2023-05-10T02:38:16;3.30;;;3.00;;
79066;SDS011;68470;50.224;14.348;2023-05-10T02:40:45;3.83;;;2.28;;
79066;SDS011;68470;50.224;14.348;2023-05-10T02:43:13;2.97;;;2.15;;
79066;SDS011;68470;50.224;14.348;2023-05-10T02:45:41;4.10;;;2.30;;
79066;SDS011;68470;50.224;14.348;2023-05-10T02:48:12;4.05;;;2.53;;
79066;SDS011;68470;50.224;14.348;2023-05-10T02:50:38;3.38;;;2.13;;
79066;SDS011;68470;50.224;14.348;2023-05-10T02:53:09;5.43;;;2.67;;
79066;SDS011;68470;50.224;14.348;2023-05-10T02:55:40;6.80;;;3.38;;
79066;SDS011;68470;50.224;14.348;2023-05-10T02:58:09;8.15;;;2.72;;
79066;SDS011;68470;50.224;14.348;2023-05-10T03:00:35;2.55;;;1.95;;
79066;SDS011;68470;50.224;14.348;2023-05-10T03:03:01;3.38;;;2.55;;
79066;SDS011;68470;50.224;14.348;2023-05-10T03:05:27;4.47;;;2.45;;
79066;SDS011;68470;50.224;14.348;2023-05-10T03:07:53;2.92;;;2.15;;
79066;SDS011;68470;50.224;14.348;2023-05-10T03:10:19;4.85;;;2.72;;
79066;SDS011;68470;50.224;14.348;2023-05-10T03:15:54;2.92;;;2.20;;
79066;SDS011;68470;50.224;14.348;2023-05-10T03:18:33;2.80;;;2.08;;
79066;SDS011;68470;50.224;14.348;2023-05-10T03:21:17;3.10;;;2.17;;
79066;SDS011;68470;50.224;14.348;2023-05-10T03:23:47;3.75;;;2.60;;
79066;SDS011;68470;50.224;14.348;2023-05-10T03:26:29;3.25;;;2.60;;
79066;SDS011;68470;50.224;14.348;2023-05-10T03:28:55;4.60;;;2.58;;
79066;SDS011;68470;50.224;14.348;2023-05-10T03:31:25;4.40;;;2.70;;
79066;SDS011;68470;50.224;14.348;2023-05-10T03:33:51;4.07;;;2.88;;
79066;SDS011;68470;50.224;14.348;2023-05-10T03:36:18;5.18;;;2.75;;
79066;SDS011;68470;50.224;14.348;2023-05-10T03:38:45;4.82;;;2.55;;
79066;SDS011;68470;50.224;14.348;2023-05-10T03:41:11;2.97;;;2.28;;
79066;SDS011;68470;50.224;14.348;2023-05-10T03:43:36;4.60;;;2.67;;
79066;SDS011;68470;50.224;14.348;2023-05-10T03:46:03;5.18;;;2.90;;
79066;SDS011;68470;50.224;14.348;2023-05-10T03:48:29;4.80;;;3.55;;
79066;SDS011;68470;50.224;14.348;2023-05-10T03:50:55;4.10;;;2.75;;
79066;SDS011;68470;50.224;14.348;2023-05-10T03:53:21;4.72;;;3.13;;
79066;SDS011;68470;50.224;14.348;2023-05-10T03:55:48;4.78;;;3.20;;
79066;SDS011;68470;50.224;14.348;2023-05-10T03:58:14;4.00;;;2.67;;
79066;SDS011;68470;50.224;14.348;2023-05-10T04:00:40;3.78;;;2.80;;
79066;SDS011;68470;50.224;14.348;2023-05-10T04:03:11;4.57;;;2.70;;
79066;SDS011;68470;50.224;14.348;2023-05-10T04:05:37;4.95;;;3.03;;
79066;SDS011;68470;50.224;14.348;2023-05-10T04:08:03;3.67;;;2.78;;
79066;SDS011;68470;50.224;14.348;2023-05-10T04:10:30;4.93;;;2.80;;
79066;SDS011;68470;50.224;14.348;2023-05-10T04:12:55;4.20;;;2.90;;
79066;SDS011;68470;50.224;14.348;2023-05-10T04:15:21;5.50;;;2.15;;
79066;SDS011;68470;50.224;14.348;2023-05-10T04:17:47;4.07;;;3.15;;
79066;SDS011;68470;50.224;14.348;2023-05-10T04:20:13;3.75;;;2.47;;
79066;SDS011;68470;50.224;14.348;2023-05-10T04:22:38;5.13;;;2.63;;
79066;SDS011;68470;50.224;14.348;2023-05-10T04:25:05;3.47;;;2.60;;
79066;SDS011;68470;50.224;14.348;2023-05-10T04:27:31;3.72;;;2.85;;
79066;SDS011;68470;50.224;14.348;2023-05-10T04:29:57;8.30;;;2.85;;
79066;SDS011;68470;50.224;14.348;2023-05-10T04:32:23;4.82;;;3.03;;
79066;SDS011;68470;50.224;14.348;2023-05-10T04:34:49;3.00;;;1.80;;
79066;SDS011;68470;50.224;14.348;2023-05-10T04:37:15;6.50;;;2.83;;
79066;SDS011;68470;50.224;14.348;2023-05-10T04:39:41;4.03;;;2.00;;
79066;SDS011;68470;50.224;14.348;2023-05-10T04:42:07;2.58;;;2.08;;
79066;SDS011;68470;50.224;14.348;2023-05-10T04:44:33;3.97;;;2.85;;
79066;SDS011;68470;50.224;14.348;2023-05-10T04:46:59;4.32;;;3.05;;
79066;SDS011;68470;50.224;14.348;2023-05-10T04:49:24;4.00;;;2.80;;
79066;SDS011;68470;50.224;14.348;2023-05-10T04:51:50;3.05;;;2.25;;
79066;SDS011;68470;50.224;14.348;2023-05-10T04:54:16;2.60;;;2.20;;
79066;SDS011;68470;50.224;14.348;2023-05-10T04:56:41;4.75;;;3.10;;
79066;SDS011;68470;50.224;14.348;2023-05-10T04:59:07;3.63;;;2.53;;
79066;SDS011;68470;50.224;14.348;2023-05-10T05:01:33;4.15;;;3.40;;
79066;SDS011;68470;50.224;14.348;2023-05-10T05:03:59;4.18;;;2.80;;
79066;SDS011;68470;50.224;14.348;2023-05-10T05:06:24;4.50;;;3.42;;
79066;SDS011;68470;50.224;14.348;2023-05-10T05:08:52;2.92;;;2.10;;
79066;SDS011;68470;50.224;14.348;2023-05-10T05:11:18;4.68;;;3.25;;
79066;SDS011;68470;50.224;14.348;2023-05-10T05:13:44;4.32;;;2.80;;
79066;SDS011;68470;50.224;14.348;2023-05-10T05:16:09;3.47;;;2.60;;
79066;SDS011;68470;50.224;14.348;2023-05-10T05:18:36;5.93;;;2.80;;
79066;SDS011;68470;50.224;14.348;2023-05-10T05:21:02;5.18;;;3.13;;
79066;SDS011;68470;50.224;14.348;2023-05-10T05:23:28;4.55;;;2.63;;
79066;SDS011;68470;50.224;14.348;2023-05-10T05:25:53;3.55;;;2.60;;
79066;SDS011;68470;50.224;14.348;2023-05-10T05:28:20;3.88;;;2.72;;
79066;SDS011;68470;50.224;14.348;2023-05-10T05:30:46;5.85;;;2.60;;
79066;SDS011;68470;50.224;14.348;2023-05-10T05:33:15;5.13;;;2.67;;
79066;SDS011;68470;50.224;14.348;2023-05-10T05:35:41;5.40;;;3.08;;
79066;SDS011;68470;50.224;14.348;2023-05-10T05:38:08;3.58;;;3.05;;
79066;SDS011;68470;50.224;14.348;2023-05-10T05:40:33;2.92;;;2.42;;
79066;SDS011;68470;50.224;14.348;2023-05-10T05:43:00;4.32;;;3.20;;
79066;SDS011;68470;50.224;14.348;2023-05-10T05:45:25;4.10;;;2.60;;
79066;SDS011;68470;50.224;14.348;2023-05-10T05:47:51;3.75;;;2.50;;
79066;SDS011;68470;50.224;14.348;2023-05-10T05:50:16;4.15;;;3.13;;
79066;SDS011;68470;50.224;14.348;2023-05-10T05:52:42;4.32;;;2.40;;
79066;SDS011;68470;50.224;14.348;2023-05-10T05:55:08;4.88;;;3.35;;
79066;SDS011;68470;50.224;14.348;2023-05-10T05:57:34;8.30;;;3.33;;
79066;SDS011;68470;50.224;14.348;2023-05-10T05:59:59;4.75;;;3.33;;
79066;SDS011;68470;50.224;14.348;2023-05-10T06:02:25;4.30;;;2.83;;
79066;SDS011;68470;50.224;14.348;2023-05-10T06:04:51;4.15;;;2.92;;
79066;SDS011;68470;50.224;14.348;2023-05-10T06:07:16;4.22;;;3.25;;
79066;SDS011;68470;50.224;14.348;2023-05-10T06:09:42;6.00;;;3.15;;
79066;SDS011;68470;50.224;14.348;2023-05-10T06:12:08;3.38;;;2.97;;
79066;SDS011;68470;50.224;14.348;2023-05-10T06:14:33;5.53;;;3.90;;
79066;SDS011;68470;50.224;14.348;2023-05-10T06:16:59;3.47;;;2.40;;
79066;SDS011;68470;50.224;14.348;2023-05-10T06:19:25;4.47;;;2.60;;
79066;SDS011;68470;50.224;14.348;2023-05-10T06:21:51;5.45;;;3.15;;
79066;SDS011;68470;50.224;14.348;2023-05-10T06:24:17;5.43;;;2.60;;
79066;SDS011;68470;50.224;14.348;2023-05-10T06:26:43;6.80;;;3.97;;
79066;SDS011;68470;50.224;14.348;2023-05-10T06:29:08;5.90;;;4.32;;
79066;SDS011;68470;50.224;14.348;2023-05-10T06:31:34;3.85;;;2.90;;
79066;SDS011;68470;50.224;14.348;2023-05-10T06:34:00;5.13;;;3.67;;
79066;SDS011;68470;50.224;14.348;2023-05-10T06:36:26;4.60;;;3.35;;
79066;SDS011;68470;50.224;14.348;2023-05-10T06:38:52;3.85;;;3.42;;
79066;SDS011;68470;50.224;14.348;2023-05-10T06:41:18;4.85;;;3.40;;
79066;SDS011;68470;50.224;14.348;2023-05-10T06:43:43;10.38;;;4.05;;
79066;SDS011;68470;50.224;14.348;2023-05-10T06:46:09;4.95;;;3.20;;
79066;SDS011;68470;50.224;14.348;2023-05-10T06:48:35;4.22;;;3.08;;
79066;SDS011;68470;50.224;14.348;2023-05-10T06:51:00;7.75;;;4.35;;
79066;SDS011;68470;50.224;14.348;2023-05-10T06:53:26;4.28;;;2.65;;
79066;SDS011;68470;50.224;14.348;2023-05-10T06:55:52;3.70;;;2.53;;
79066;SDS011;68470;50.224;14.348;2023-05-10T06:58:18;5.60;;;3.35;;
79066;SDS011;68470;50.224;14.348;2023-05-10T07:00:44;4.88;;;3.10;;
79066;SDS011;68470;50.224;14.348;2023-05-10T07:03:10;4.82;;;3.45;;
79066;SDS011;68470;50.224;14.348;2023-05-10T07:05:36;4.35;;;3.33;;
79066;SDS011;68470;50.224;14.348;2023-05-10T07:08:01;4.20;;;2.65;;
79066;SDS011;68470;50.224;14.348;2023-05-10T07:10:27;4.43;;;3.30;;
79066;SDS011;68470;50.224;14.348;2023-05-10T07:12:53;5.00;;;3.13;;
79066;SDS011;68470;50.224;14.348;2023-05-10T07:15:19;3.55;;;2.88;;
79066;SDS011;68470;50.224;14.348;2023-05-10T07:17:44;7.70;;;3.53;;
79066;SDS011;68470;50.224;14.348;2023-05-10T07:20:11;4.40;;;3.35;;
79066;SDS011;68470;50.224;14.348;2023-05-10T07:22:37;4.38;;;3.58;;
79066;SDS011;68470;50.224;14.348;2023-05-10T07:25:03;5.07;;;3.55;;
79066;SDS011;68470;50.224;14.348;2023-05-10T07:27:29;4.68;;;3.03;;
79066;SDS011;68470;50.224;14.348;2023-05-10T07:29:55;4.35;;;3.95;;
79066;SDS011;68470;50.224;14.348;2023-05-10T07:32:21;4.93;;;3.53;;
79066;SDS011;68470;50.224;14.348;2023-05-10T07:34:47;6.47;;;4.32;;
79066;SDS011;68470;50.224;14.348;2023-05-10T07:37:13;3.75;;;2.70;;
79066;SDS011;68470;50.224;14.348;2023-05-10T07:39:38;5.57;;;3.80;;
79066;SDS011;68470;50.224;14.348;2023-05-10T07:42:04;4.80;;;3.70;;
79066;SDS011;68470;50.224;14.348;2023-05-10T07:44:31;5.50;;;3.90;;
79066;SDS011;68470;50.224;14.348;2023-05-10T07:46:56;6.47;;;4.05;;
79066;SDS011;68470;50.224;14.348;2023-05-10T07:49:22;5.63;;;3.63;;
79066;SDS011;68470;50.224;14.348;2023-05-10T07:51:49;3.25;;;2.92;;
79066;SDS011;68470;50.224;14.348;2023-05-10T07:54:15;5.65;;;4.30;;
79066;SDS011;68470;50.224;14.348;2023-05-10T07:56:41;7.55;;;4.30;;
79066;SDS011;68470;50.224;14.348;2023-05-10T07:59:14;4.30;;;3.45;;
79066;SDS011;68470;50.224;14.348;2023-05-10T08:01:41;6.28;;;3.78;;
79066;SDS011;68470;50.224;14.348;2023-05-10T08:04:07;4.78;;;3.63;;
79066;SDS011;68470;50.224;14.348;2023-05-10T08:06:34;5.47;;;3.60;;
79066;SDS011;68470;50.224;14.348;2023-05-10T08:09:00;5.13;;;3.63;;
79066;SDS011;68470;50.224;14.348;2023-05-10T08:11:25;4.78;;;3.70;;
79066;SDS011;68470;50.224;14.348;2023-05-10T08:13:53;5.75;;;4.00;;
79066;SDS011;68470;50.224;14.348;2023-05-10T08:16:19;4.68;;;2.60;;
79066;SDS011;68470;50.224;14.348;2023-05-10T08:18:46;5.55;;;3.42;;
79066;SDS011;68470;50.224;14.348;2023-05-10T08:21:15;5.50;;;3.45;;
79066;SDS011;68470;50.224;14.348;2023-05-10T08:23:41;4.97;;;4.00;;
79066;SDS011;68470;50.224;14.348;2023-05-10T08:26:08;3.75;;;2.42;;
79066;SDS011;68470;50.224;14.348;2023-05-10T08:28:34;5.70;;;2.63;;
79066;SDS011;68470;50.224;14.348;2023-05-10T08:31:00;4.88;;;3.28;;
79066;SDS011;68470;50.224;14.348;2023-05-10T08:33:26;4.70;;;2.90;;
79066;SDS011;68470;50.224;14.348;2023-05-10T08:35:52;3.38;;;3.00;;
79066;SDS011;68470;50.224;14.348;2023-05-10T08:38:17;4.47;;;2.90;;
79066;SDS011;68470;50.224;14.348;2023-05-10T08:40:43;4.35;;;2.95;;
79066;SDS011;68470;50.224;14.348;2023-05-10T08:43:12;4.38;;;3.58;;
79066;SDS011;68470;50.224;14.348;2023-05-10T08:45:41;4.07;;;2.60;;
79066;SDS011;68470;50.224;14.348;2023-05-10T08:48:10;5.05;;;3.70;;
79066;SDS011;68470;50.224;14.348;2023-05-10T08:50:37;5.85;;;3.85;;
79066;SDS011;68470;50.224;14.348;2023-05-10T08:53:06;5.15;;;4.65;;
79066;SDS011;68470;50.224;14.348;2023-05-10T08:55:35;4.53;;;3.15;;
79066;SDS011;68470;50.224;14.348;2023-05-10T08:58:05;3.85;;;3.30;;
79066;SDS011;68470;50.224;14.348;2023-05-10T09:00:32;4.97;;;3.70;;
79066;SDS011;68470;50.224;14.348;2023-05-10T09:02:58;5.72;;;3.30;;
79066;SDS011;68470;50.224;14.348;2023-05-10T09:05:25;6.85;;;3.20;;
79066;SDS011;68470;50.224;14.348;2023-05-10T09:07:51;3.97;;;3.40;;
79066;SDS011;68470;50.224;14.348;2023-05-10T09:10:16;5.70;;;3.92;;
79066;SDS011;68470;50.224;14.348;2023-05-10T09:12:43;6.57;;;3.92;;
79066;SDS011;68470;50.224;14.348;2023-05-10T09:15:11;4.32;;;3.60;;
79066;SDS011;68470;50.224;14.348;2023-05-10T09:17:44;6.18;;;3.30;;
79066;SDS011;68470;50.224;14.348;2023-05-10T09:20:14;4.25;;;2.88;;
79066;SDS011;68470;50.224;14.348;2023-05-10T09:22:40;5.32;;;3.30;;
79066;SDS011;68470;50.224;14.348;2023-05-10T09:25:06;4.55;;;4.03;;
79066;SDS011;68470;50.224;14.348;2023-05-10T09:27:34;4.72;;;3.30;;
79066;SDS011;68470;50.224;14.348;2023-05-10T09:30:00;6.05;;;3.00;;
79066;SDS011;68470;50.224;14.348;2023-05-10T09:32:36;5.70;;;5.20;;
79066;SDS011;68470;50.224;14.348;2023-05-10T09:35:09;5.50;;;3.90;;
79066;SDS011;68470;50.224;14.348;2023-05-10T09:37:36;4.90;;;3.80;;
79066;SDS011;68470;50.224;14.348;2023-05-10T09:40:04;5.15;;;4.05;;
79066;SDS011;68470;50.224;14.348;2023-05-10T09:42:30;6.68;;;4.00;;
79066;SDS011;68470;50.224;14.348;2023-05-10T09:44:59;4.85;;;3.65;;
79066;SDS011;68470;50.224;14.348;2023-05-10T09:47:34;4.35;;;3.28;;
79066;SDS011;68470;50.224;14.348;2023-05-10T09:50:01;5.43;;;3.35;;
79066;SDS011;68470;50.224;14.348;2023-05-10T09:52:50;4.18;;;3.53;;
79066;SDS011;68470;50.224;14.348;2023-05-10T09:55:22;4.70;;;3.47;;
79066;SDS011;68470;50.224;14.348;2023-05-10T09:58:00;5.80;;;3.70;;
79066;SDS011;68470;50.224;14.348;2023-05-10T10:00:27;6.60;;;3.60;;
79066;SDS011;68470;50.224;14.348;2023-05-10T10:02:54;4.72;;;3.42;;
79066;SDS011;68470;50.224;14.348;2023-05-10T10:05:20;4.90;;;4.13;;
79066;SDS011;68470;50.224;14.348;2023-05-10T10:07:53;3.05;;;2.65;;
79066;SDS011;68470;50.224;14.348;2023-05-10T10:10:18;5.15;;;3.28;;
79066;SDS011;68470;50.224;14.348;2023-05-10T10:12:44;4.25;;;3.72;;
79066;SDS011;68470;50.224;14.348;2023-05-10T10:15:10;6.35;;;4.32;;
79066;SDS011;68470;50.224;14.348;2023-05-10T10:17:36;4.90;;;4.00;;
79066;SDS011;68470;50.224;14.348;2023-05-10T10:20:03;3.92;;;3.13;;
79066;SDS011;68470;50.224;14.348;2023-05-10T10:22:30;5.85;;;3.80;;
79066;SDS011;68470;50.224;14.348;2023-05-10T10:24:56;4.40;;;3.38;;
79066;SDS011;68470;50.224;14.348;2023-05-10T10:27:32;10.25;;;3.92;;
79066;SDS011;68470;50.224;14.348;2023-05-10T10:30:10;5.88;;;4.30;;
79066;SDS011;68470;50.224;14.348;2023-05-10T10:35:33;5.18;;;3.95;;
79066;SDS011;68470;50.224;14.348;2023-05-10T10:38:00;7.13;;;4.25;;
79066;SDS011;68470;50.224;14.348;2023-05-10T10:40:30;5.10;;;3.63;;
79066;SDS011;68470;50.224;14.348;2023-05-10T10:42:57;4.97;;;3.67;;
79066;SDS011;68470;50.224;14.348;2023-05-10T10:45:23;5.10;;;3.72;;
79066;SDS011;68470;50.224;14.348;2023-05-10T10:48:19;4.97;;;3.88;;
79066;SDS011;68470;50.224;14.348;2023-05-10T10:50:46;4.45;;;3.40;;
79066;SDS011;68470;50.224;14.348;2023-05-10T10:53:12;5.72;;;3.85;;
79066;SDS011;68470;50.224;14.348;2023-05-10T10:55:47;4.50;;;3.70;;
79066;SDS011;68470;50.224;14.348;2023-05-10T10:58:30;4.68;;;3.67;;
79066;SDS011;68470;50.224;14.348;2023-05-10T11:01:12;5.05;;;3.70;;
79066;SDS011;68470;50.224;14.348;2023-05-10T11:03:41;4.45;;;2.95;;
79066;SDS011;68470;50.224;14.348;2023-05-10T11:06:28;4.70;;;4.07;;
79066;SDS011;68470;50.224;14.348;2023-05-10T11:08:58;5.38;;;3.90;;
79066;SDS011;68470;50.224;14.348;2023-05-10T11:11:24;4.72;;;3.25;;
79066;SDS011;68470;50.224;14.348;2023-05-10T11:13:50;3.78;;;3.33;;
79066;SDS011;68470;50.224;14.348;2023-05-10T11:16:23;4.50;;;3.45;;
79066;SDS011;68470;50.224;14.348;2023-05-10T11:18:55;4.53;;;3.78;;
79066;SDS011;68470;50.224;14.348;2023-05-10T11:21:24;5.82;;;3.80;;
79066;SDS011;68470;50.224;14.348;2023-05-10T11:23:51;5.00;;;3.70;;
79066;SDS011;68470;50.224;14.348;2023-05-10T11:26:21;3.45;;;2.53;;
79066;SDS011;68470;50.224;14.348;2023-05-10T11:28:48;6.20;;;3.50;;
79066;SDS011;68470;50.224;14.348;2023-05-10T11:31:18;5.50;;;3.80;;
79066;SDS011;68470;50.224;14.348;2023-05-10T11:33:44;4.22;;;3.42;;
79066;SDS011;68470;50.224;14.348;2023-05-10T11:36:12;7.20;;;3.97;;
79066;SDS011;68470;50.224;14.348;2023-05-10T11:38:39;4.40;;;4.00;;
79066;SDS011;68470;50.224;14.348;2023-05-10T11:41:05;3.88;;;3.55;;
79066;SDS011;68470;50.224;14.348;2023-05-10T11:43:33;4.05;;;3.63;;
79066;SDS011;68470;50.224;14.348;2023-05-10T11:45:58;4.10;;;3.47;;
79066;SDS011;68470;50.224;14.348;2023-05-10T11:48:24;3.67;;;2.50;;
79066;SDS011;68470;50.224;14.348;2023-05-10T11:50:50;4.82;;;3.03;;
79066;SDS011;68470;50.224;14.348;2023-05-10T11:53:16;4.30;;;3.60;;
79066;SDS011;68470;50.224;14.348;2023-05-10T11:55:42;7.43;;;3.40;;
79066;SDS011;68470;50.224;14.348;2023-05-10T11:58:09;5.07;;;3.35;;
79066;SDS011;68470;50.224;14.348;2023-05-10T12:00:34;3.70;;;2.78;;
79066;SDS011;68470;50.224;14.348;2023-05-10T12:03:00;4.28;;;2.65;;
79066;SDS011;68470;50.224;14.348;2023-05-10T12:05:27;3.33;;;2.72;;
79066;SDS011;68470;50.224;14.348;2023-05-10T12:07:53;5.68;;;3.08;;
79066;SDS011;68470;50.224;14.348;2023-05-10T12:10:36;5.80;;;3.42;;
79066;SDS011;68470;50.224;14.348;2023-05-10T12:13:01;3.47;;;2.60;;
79066;SDS011;68470;50.224;14.348;2023-05-10T12:15:28;5.07;;;3.05;;
79066;SDS011;68470;50.224;14.348;2023-05-10T12:17:54;5.25;;;2.85;;
79066;SDS011;68470;50.224;14.348;2023-05-10T12:20:20;4.50;;;3.00;;
79066;SDS011;68470;50.224;14.348;2023-05-10T12:22:53;3.92;;;3.10;;
79066;SDS011;68470;50.224;14.348;2023-05-10T12:25:22;4.28;;;3.35;;
79066;SDS011;68470;50.224;14.348;2023-05-10T12:27:51;3.47;;;2.40;;
79066;SDS011;68470;50.224;14.348;2023-05-10T12:32:46;3.55;;;2.63;;
79066;SDS011;68470;50.224;14.348;2023-05-10T12:35:12;4.78;;;2.85;;
79066;SDS011;68470;50.224;14.348;2023-05-10T12:37:38;4.00;;;2.80;;
79066;SDS011;68470;50.224;14.348;2023-05-10T12:40:08;2.72;;;2.17;;
79066;SDS011;68470;50.224;14.348;2023-05-10T12:42:36;3.63;;;2.33;;
79066;SDS011;68470;50.224;14.348;2023-05-10T12:45:03;3.85;;;2.40;;
79066;SDS011;68470;50.224;14.348;2023-05-10T12:47:31;4.00;;;2.85;;
79066;SDS011;68470;50.224;14.348;2023-05-10T12:49:57;4.40;;;3.15;;
79066;SDS011;68470;50.224;14.348;2023-05-10T12:52:24;5.47;;;3.10;;
79066;SDS011;68470;50.224;14.348;2023-05-10T12:54:51;8.32;;;2.38;;
79066;SDS011;68470;50.224;14.348;2023-05-10T12:57:20;3.38;;;2.72;;
79066;SDS011;68470;50.224;14.348;2023-05-10T12:59:46;4.35;;;2.85;;
79066;SDS011;68470;50.224;14.348;2023-05-10T13:02:12;4.60;;;2.70;;
79066;SDS011;68470;50.224;14.348;2023-05-10T13:04:39;4.75;;;3.47;;
79066;SDS011;68470;50.224;14.348;2023-05-10T13:07:06;8.77;;;3.30;;
79066;SDS011;68470;50.224;14.348;2023-05-10T13:09:32;4.43;;;2.78;;
79066;SDS011;68470;50.224;14.348;2023-05-10T13:11:57;5.13;;;2.65;;
79066;SDS011;68470;50.224;14.348;2023-05-10T13:14:24;4.85;;;3.45;;
79066;SDS011;68470;50.224;14.348;2023-05-10T13:16:50;3.97;;;2.97;;
79066;SDS011;68470;50.224;14.348;2023-05-10T13:19:16;5.10;;;3.17;;
79066;SDS011;68470;50.224;14.348;2023-05-10T13:21:43;5.57;;;3.00;;
79066;SDS011;68470;50.224;14.348;2023-05-10T13:24:09;4.93;;;2.83;;
79066;SDS011;68470;50.224;14.348;2023-05-10T13:26:36;4.32;;;2.70;;
79066;SDS011;68470;50.224;14.348;2023-05-10T13:29:02;4.95;;;2.78;;
79066;SDS011;68470;50.224;14.348;2023-05-10T13:31:28;3.78;;;2.78;;
79066;SDS011;68470;50.224;14.348;2023-05-10T13:33:54;4.82;;;3.15;;
79066;SDS011;68470;50.224;14.348;2023-05-10T13:36:20;4.07;;;2.90;;
79066;SDS011;68470;50.224;14.348;2023-05-10T13:38:48;3.05;;;2.55;;
79066;SDS011;68470;50.224;14.348;2023-05-10T13:41:14;4.25;;;2.75;;
79066;SDS011;68470;50.224;14.348;2023-05-10T13:43:39;4.93;;;3.13;;
79066;SDS011;68470;50.224;14.348;2023-05-10T13:46:05;3.15;;;2.22;;
79066;SDS011;68470;50.224;14.348;2023-05-10T13:48:31;4.78;;;2.90;;
79066;SDS011;68470;50.224;14.348;2023-05-10T13:51:01;5.05;;;3.53;;
79066;SDS011;68470;50.224;14.348;2023-05-10T13:53:29;4.43;;;3.13;;
79066;SDS011;68470;50.224;14.348;2023-05-10T13:55:55;4.57;;;3.10;;
79066;SDS011;68470;50.224;14.348;2023-05-10T13:58:20;5.05;;;3.10;;
79066;SDS011;68470;50.224;14.348;2023-05-10T14:00:46;2.85;;;2.15;;
79066;SDS011;68470;50.224;14.348;2023-05-10T14:03:12;4.30;;;3.53;;
79066;SDS011;68470;50.224;14.348;2023-05-10T14:05:37;5.18;;;3.03;;
79066;SDS011;68470;50.224;14.348;2023-05-10T14:08:03;4.65;;;2.70;;
79066;SDS011;68470;50.224;14.348;2023-05-10T14:10:29;5.97;;;3.90;;
79066;SDS011;68470;50.224;14.348;2023-05-10T14:12:55;5.93;;;3.95;;
79066;SDS011;68470;50.224;14.348;2023-05-10T14:15:21;8.18;;;4.45;;
79066;SDS011;68470;50.224;14.348;2023-05-10T14:17:47;5.90;;;4.72;;
79066;SDS011;68470;50.224;14.348;2023-05-10T14:20:13;8.50;;;4.80;;
79066;SDS011;68470;50.224;14.348;2023-05-10T14:22:39;7.18;;;4.90;;
79066;SDS011;68470;50.224;14.348;2023-05-10T14:25:05;9.75;;;5.03;;
79066;SDS011;68470;50.224;14.348;2023-05-10T14:27:31;9.30;;;5.32;;
79066;SDS011;68470;50.224;14.348;2023-05-10T14:29:58;8.57;;;5.25;;
79066;SDS011;68470;50.224;14.348;2023-05-10T14:32:25;8.10;;;5.30;;
79066;SDS011;68470;50.224;14.348;2023-05-10T14:34:52;7.50;;;5.18;;
79066;SDS011;68470;50.224;14.348;2023-05-10T14:37:18;6.90;;;5.20;;
79066;SDS011;68470;50.224;14.348;2023-05-10T14:39:44;7.63;;;5.15;;
79066;SDS011;68470;50.224;14.348;2023-05-10T14:42:09;8.30;;;4.88;;
79066;SDS011;68470;50.224;14.348;2023-05-10T14:44:36;9.60;;;4.68;;
79066;SDS011;68470;50.224;14.348;2023-05-10T14:47:02;9.10;;;4.65;;
79066;SDS011;68470;50.224;14.348;2023-05-10T14:49:28;7.00;;;4.18;;
79066;SDS011;68470;50.224;14.348;2023-05-10T14:51:54;7.60;;;5.10;;
79066;SDS011;68470;50.224;14.348;2023-05-10T14:54:20;8.40;;;4.90;;
79066;SDS011;68470;50.224;14.348;2023-05-10T14:56:45;6.65;;;3.90;;